createdAt,value
2022-10-24T00:00:21.272Z,14.96
2022-10-24T00:05:23.096Z,14.93
2022-10-24T00:10:24.783Z,14.89
2022-10-24T00:15:26.314Z,14.80
2022-10-24T00:20:27.903Z,14.50
2022-10-24T00:25:29.423Z,14.58
2022-10-24T00:30:31.069Z,14.67
2022-10-24T00:35:32.660Z,14.52
2022-10-24T00:40:34.215Z,14.62
2022-10-24T00:45:44.683Z,14.74
2022-10-24T00:50:47.022Z,14.69
2022-10-24T00:55:50.795Z,14.58
2022-10-24T01:00:52.323Z,14.60
2022-10-24T01:05:57.691Z,14.59
2022-10-24T01:11:18.313Z,14.66
2022-10-24T01:16:32.296Z,14.58
2022-10-24T01:21:46.047Z,14.62
2022-10-24T01:27:06.075Z,14.60
2022-10-24T01:32:21.920Z,14.60
2022-10-24T01:38:02.247Z,14.61
2022-10-24T01:43:09.690Z,14.68
2022-10-24T01:48:14.653Z,14.73
2022-10-24T01:53:16.852Z,14.63
2022-10-24T01:58:18.987Z,14.52
2022-10-24T02:03:46.244Z,14.50
2022-10-24T02:08:52.017Z,14.65
2022-10-24T02:13:58.164Z,14.51
2022-10-24T02:19:00.481Z,14.49
2022-10-24T02:24:14.484Z,14.47
2022-10-24T02:29:19.774Z,14.53
2022-10-24T02:34:22.406Z,14.63
2022-10-24T02:39:25.315Z,14.58
2022-10-24T02:44:27.656Z,14.52
2022-10-24T02:49:29.181Z,14.60
2022-10-24T02:54:30.764Z,14.60
2022-10-24T02:59:32.268Z,14.56
2022-10-24T03:04:33.762Z,14.58
2022-10-24T03:09:35.283Z,14.62
2022-10-24T03:14:36.844Z,14.54
2022-10-24T03:19:38.549Z,14.58
2022-10-24T03:24:44.306Z,14.63
2022-10-24T03:29:56.222Z,14.66
2022-10-24T03:34:57.704Z,14.61
2022-10-24T03:39:59.251Z,14.63
2022-10-24T03:45:00.748Z,14.52
2022-10-24T03:50:02.243Z,14.57
2022-10-24T03:55:03.914Z,14.46
2022-10-24T04:00:06.327Z,14.39
2022-10-24T04:05:08.407Z,14.38
2022-10-24T04:10:10.176Z,14.24
2022-10-24T04:15:11.674Z,14.29
2022-10-24T04:20:13.438Z,14.44
2022-10-24T04:25:15.432Z,14.35
2022-10-24T04:30:18.511Z,14.36
2022-10-24T04:35:20.078Z,14.30
2022-10-24T04:40:21.719Z,14.15
2022-10-24T04:45:23.209Z,14.29
2022-10-24T04:50:24.809Z,14.36
2022-10-24T04:55:26.433Z,14.38
2022-10-24T05:00:28.029Z,14.36
2022-10-24T05:05:29.519Z,14.43
2022-10-24T05:10:31.084Z,14.45
2022-10-24T05:15:32.730Z,14.42
2022-10-24T05:20:34.285Z,14.24
2022-10-24T05:25:35.908Z,14.34
2022-10-24T05:30:37.396Z,14.39
2022-10-24T05:35:38.968Z,14.37
2022-10-24T05:40:40.654Z,14.46
2022-10-24T05:45:42.402Z,14.51
2022-10-24T05:50:44.007Z,14.50
2022-10-24T05:55:45.568Z,14.48
2022-10-24T06:00:51.223Z,14.34
2022-10-24T06:05:55.178Z,14.44
2022-10-24T06:10:56.669Z,14.42
2022-10-24T06:15:58.165Z,14.51
2022-10-24T06:21:00.444Z,14.56
2022-10-24T06:26:01.987Z,14.55
2022-10-24T06:31:03.772Z,14.62
2022-10-24T06:36:07.788Z,14.71
2022-10-24T06:41:11.307Z,14.67
2022-10-24T06:46:14.794Z,14.72
2022-10-24T06:51:16.417Z,14.66
2022-10-24T06:56:18.258Z,14.77
2022-10-24T07:01:22.000Z,14.83
2022-10-24T07:06:26.494Z,14.90
2022-10-24T07:11:28.698Z,14.98
2022-10-24T07:16:30.247Z,15.08
2022-10-24T07:21:32.918Z,15.20
2022-10-24T07:26:34.428Z,15.30
2022-10-24T07:31:36.551Z,15.30
2022-10-24T07:36:41.436Z,15.36
2022-10-24T07:41:45.273Z,15.39
2022-10-24T07:46:46.750Z,15.39
2022-10-24T07:51:48.257Z,15.46
2022-10-24T07:56:49.782Z,15.54
2022-10-24T08:01:51.283Z,15.62
2022-10-24T08:06:52.800Z,15.69
2022-10-24T08:11:54.298Z,15.69
2022-10-24T08:16:55.782Z,15.72
2022-10-24T08:21:57.396Z,15.76
2022-10-24T08:26:59.533Z,15.78
2022-10-24T08:32:01.132Z,15.84
2022-10-24T08:37:03.387Z,15.86
2022-10-24T08:42:06.977Z,15.92
2022-10-24T08:47:27.485Z,15.98
2022-10-24T08:52:42.609Z,16.04
2022-10-24T08:57:54.914Z,16.08
2022-10-24T09:03:04.411Z,16.18
2022-10-24T09:08:27.037Z,16.23
2022-10-24T09:13:29.810Z,16.34
2022-10-24T09:18:34.599Z,16.32
2022-10-24T09:23:37.698Z,16.41
2022-10-24T09:28:39.437Z,16.45
2022-10-24T09:33:42.651Z,16.47
2022-10-24T09:38:45.074Z,16.46
2022-10-24T09:43:51.053Z,16.43
2022-10-24T09:48:54.761Z,16.51
2022-10-24T09:54:19.066Z,16.52
2022-10-24T09:59:37.746Z,16.63
2022-10-24T10:04:40.275Z,16.72
2022-10-24T10:09:56.699Z,16.87
2022-10-24T10:14:59.691Z,16.94
2022-10-24T10:20:01.225Z,16.97
2022-10-24T10:25:02.886Z,17.04
2022-10-24T10:30:14.950Z,17.06
2022-10-24T10:35:24.335Z,17.10
2022-10-24T10:40:31.411Z,17.18
2022-10-24T10:45:35.705Z,17.19
2022-10-24T10:50:43.071Z,17.18
2022-10-24T10:55:51.228Z,17.19
2022-10-24T11:01:01.615Z,17.23
2022-10-24T11:06:21.429Z,17.21
2022-10-24T11:11:31.629Z,17.21
2022-10-24T11:16:33.524Z,17.27
2022-10-24T11:21:35.306Z,17.31
2022-10-24T11:27:01.741Z,17.42
2022-10-24T11:32:29.325Z,17.45
2022-10-24T11:37:37.084Z,17.61
2022-10-24T11:43:15.876Z,17.47
2022-10-24T11:48:32.823Z,17.45
2022-10-24T11:53:39.287Z,17.57
2022-10-24T11:59:08.035Z,17.58
2022-10-24T12:04:57.852Z,17.48
2022-10-24T12:10:17.020Z,17.62
2022-10-24T12:15:32.895Z,17.60
2022-10-24T12:20:35.273Z,17.69
2022-10-24T12:25:37.735Z,17.57
2022-10-24T12:30:39.639Z,17.55
2022-10-24T12:35:41.131Z,17.57
2022-10-24T12:40:45.718Z,17.72
2022-10-24T12:45:47.255Z,17.68
2022-10-24T12:50:57.593Z,17.64
2022-10-24T12:55:58.976Z,17.65
2022-10-24T13:01:04.067Z,17.63
2022-10-24T13:06:12.259Z,17.65
2022-10-24T13:11:27.923Z,17.61
2022-10-24T13:16:40.430Z,17.69
2022-10-24T13:21:54.909Z,17.58
2022-10-24T13:26:56.715Z,17.57
2022-10-24T13:32:04.230Z,17.66
2022-10-24T13:37:24.973Z,17.68
2022-10-24T13:42:29.478Z,17.64
2022-10-24T13:47:34.725Z,17.61
2022-10-24T13:52:49.048Z,17.58
2022-10-24T13:58:01.352Z,17.57
2022-10-24T14:03:13.688Z,17.57
2022-10-24T14:08:30.633Z,17.57
2022-10-24T14:13:35.814Z,17.57
2022-10-24T14:18:39.351Z,17.55
2022-10-24T14:23:41.295Z,17.54
2022-10-24T14:28:50.571Z,17.53
2022-10-24T14:33:55.013Z,17.53
2022-10-24T14:38:58.795Z,17.50
2022-10-24T14:44:00.802Z,17.51
2022-10-24T14:49:28.340Z,17.49
2022-10-24T14:54:33.598Z,17.46
2022-10-24T14:59:39.009Z,17.44
2022-10-24T15:04:45.717Z,17.42
2022-10-24T15:10:01.843Z,17.42
2022-10-24T15:15:52.139Z,17.38
2022-10-24T15:21:12.325Z,17.35
2022-10-24T15:26:36.351Z,17.35
2022-10-24T15:31:40.762Z,17.31
2022-10-24T15:36:43.917Z,17.27
2022-10-24T15:41:45.433Z,17.23
2022-10-24T15:46:47.883Z,17.21
2022-10-24T15:51:50.659Z,17.20
2022-10-24T15:56:52.947Z,17.16
2022-10-24T16:01:56.533Z,17.15
2022-10-24T16:06:58.150Z,17.06
2022-10-24T16:11:59.698Z,17.04
2022-10-24T16:17:01.234Z,16.99
2022-10-24T16:22:02.856Z,16.99
2022-10-24T16:27:04.462Z,16.91
2022-10-24T16:32:06.114Z,16.92
2022-10-24T16:37:07.711Z,16.90
2022-10-24T16:42:09.174Z,16.88
2022-10-24T16:47:10.725Z,16.86
2022-10-24T16:52:12.614Z,16.83
2022-10-24T16:57:14.180Z,16.70
2022-10-24T17:02:17.050Z,16.64
2022-10-24T17:07:18.599Z,16.63
2022-10-24T17:12:20.134Z,16.56
2022-10-24T17:17:21.641Z,16.43
2022-10-24T17:22:23.310Z,16.43
2022-10-24T17:27:25.319Z,16.44
2022-10-24T17:32:26.932Z,16.35
2022-10-24T17:37:43.150Z,16.36
2022-10-24T17:42:48.480Z,16.41
2022-10-24T17:47:50.304Z,16.41
2022-10-24T17:52:52.155Z,16.35
2022-10-24T17:57:53.992Z,16.30
2022-10-24T18:02:55.503Z,16.11
2022-10-24T18:07:57.882Z,16.12
2022-10-24T18:18:06.172Z,15.94
2022-10-24T18:23:07.700Z,16.00
2022-10-24T18:28:09.653Z,15.88
2022-10-24T18:33:11.209Z,15.87
2022-10-24T18:38:12.772Z,15.71
2022-10-24T18:43:14.454Z,15.80
2022-10-24T18:48:16.624Z,15.67
2022-10-24T18:53:25.930Z,15.81
2022-10-24T18:58:27.491Z,15.84
2022-10-24T19:03:34.104Z,15.70
2022-10-24T19:08:35.713Z,15.61
2022-10-24T19:13:37.230Z,15.76
2022-10-24T19:18:38.772Z,15.65
2022-10-24T19:23:40.241Z,15.64
2022-10-24T19:28:41.742Z,15.72
2022-10-24T19:33:43.291Z,15.69
2022-10-24T19:38:44.785Z,15.65
2022-10-24T19:43:46.259Z,15.61
2022-10-24T19:48:53.040Z,15.52
2022-10-24T19:53:54.630Z,15.29
2022-10-24T19:58:56.261Z,15.36
2022-10-24T20:03:57.821Z,15.42
2022-10-24T20:08:59.414Z,15.39
2022-10-24T20:14:01.291Z,15.42
2022-10-24T20:19:03.831Z,15.26
2022-10-24T20:24:06.113Z,15.32
2022-10-24T20:29:07.675Z,15.23
2022-10-24T20:34:11.997Z,15.26
2022-10-24T20:39:16.020Z,15.24
2022-10-24T20:44:17.548Z,15.28
2022-10-24T20:49:19.025Z,15.35
2022-10-24T20:54:20.537Z,15.07
2022-10-24T20:59:22.863Z,15.37
2022-10-24T21:04:24.339Z,15.29
2022-10-24T21:09:25.847Z,15.40
2022-10-24T21:14:27.494Z,15.35
2022-10-24T21:19:30.389Z,15.39
2022-10-24T21:24:32.007Z,15.43
2022-10-24T21:29:34.338Z,15.31
2022-10-24T21:34:36.057Z,15.36
2022-10-24T21:39:37.555Z,15.26
2022-10-24T21:44:39.044Z,15.14
2022-10-24T21:49:40.535Z,15.02
2022-10-24T21:54:42.056Z,15.01
2022-10-24T21:59:43.565Z,15.08
2022-10-24T22:04:45.170Z,15.16
2022-10-24T22:09:46.715Z,15.12
2022-10-24T22:14:48.204Z,15.06
2022-10-24T22:19:49.692Z,15.02
2022-10-24T22:24:51.258Z,14.96
2022-10-24T22:29:52.763Z,14.96
2022-10-24T22:34:54.473Z,14.95
2022-10-24T22:39:56.185Z,14.92
2022-10-24T22:44:57.924Z,14.84
2022-10-24T22:50:37.724Z,14.67
2022-10-24T22:55:53.500Z,14.80
2022-10-24T23:00:59.954Z,14.47
2022-10-24T23:06:33.672Z,14.52
2022-10-24T23:11:35.405Z,14.43
2022-10-24T23:16:45.108Z,14.71
2022-10-24T23:22:09.275Z,14.66
2022-10-24T23:27:11.392Z,14.67
2022-10-24T23:32:34.163Z,14.57
2022-10-24T23:37:38.682Z,14.40
2022-10-24T23:42:40.749Z,14.50
2022-10-24T23:47:48.443Z,14.66
2022-10-24T23:53:31.315Z,14.69
2022-10-24T23:58:32.825Z,14.70
